sensor_id;sensor_type;location;lat;lon;timestamp;temperature;humidity
62476;DHT22;50739;45.670;11.936;2023-05-07T00:03:55;18.65;81.26
62476;DHT22;50739;45.670;11.936;2023-05-07T00:08:58;18.62;81.78
62476;DHT22;50739;45.670;11.936;2023-05-07T00:14:01;18.58;81.67
62476;DHT22;50739;45.670;11.936;2023-05-07T00:19:03;18.46;82.19
62476;DHT22;50739;45.670;11.936;2023-05-07T00:24:06;18.55;81.71
62476;DHT22;50739;45.670;11.936;2023-05-07T00:29:08;18.49;81.67
62476;DHT22;50739;45.670;11.936;2023-05-07T00:34:10;18.45;81.72
62476;DHT22;50739;45.670;11.936;2023-05-07T00:39:13;18.48;81.39
62476;DHT22;50739;45.670;11.936;2023-05-07T00:44:15;18.44;81.81
62476;DHT22;50739;45.670;11.936;2023-05-07T00:49:17;18.31;81.66
62476;DHT22;50739;45.670;11.936;2023-05-07T00:54:21;18.44;80.79
62476;DHT22;50739;45.670;11.936;2023-05-07T00:59:23;18.37;81.30
62476;DHT22;50739;45.670;11.936;2023-05-07T01:04:26;18.41;81.85
62476;DHT22;50739;45.670;11.936;2023-05-07T01:09:29;18.32;82.07
62476;DHT22;50739;45.670;11.936;2023-05-07T01:14:31;18.45;81.44
62476;DHT22;50739;45.670;11.936;2023-05-07T01:19:33;18.35;81.71
62476;DHT22;50739;45.670;11.936;2023-05-07T01:24:38;18.15;82.71
62476;DHT22;50739;45.670;11.936;2023-05-07T01:29:39;18.17;82.79
62476;DHT22;50739;45.670;11.936;2023-05-07T01:34:42;18.15;82.96
62476;DHT22;50739;45.670;11.936;2023-05-07T01:39:47;18.17;83.09
62476;DHT22;50739;45.670;11.936;2023-05-07T01:44:49;18.20;82.85
62476;DHT22;50739;45.670;11.936;2023-05-07T01:49:52;18.10;83.61
62476;DHT22;50739;45.670;11.936;2023-05-07T01:54:55;18.18;82.94
62476;DHT22;50739;45.670;11.936;2023-05-07T01:59:56;18.18;82.90
62476;DHT22;50739;45.670;11.936;2023-05-07T02:05:00;18.14;83.30
62476;DHT22;50739;45.670;11.936;2023-05-07T02:10:05;18.04;83.67
62476;DHT22;50739;45.670;11.936;2023-05-07T02:15:07;18.05;82.97
62476;DHT22;50739;45.670;11.936;2023-05-07T02:20:09;17.87;82.64
62476;DHT22;50739;45.670;11.936;2023-05-07T02:25:15;17.98;82.38
62476;DHT22;50739;45.670;11.936;2023-05-07T02:30:17;17.93;82.48
62476;DHT22;50739;45.670;11.936;2023-05-07T02:35:19;17.79;82.73
62476;DHT22;50739;45.670;11.936;2023-05-07T02:40:23;17.63;82.98
62476;DHT22;50739;45.670;11.936;2023-05-07T02:45:25;17.62;83.15
62476;DHT22;50739;45.670;11.936;2023-05-07T02:50:27;17.56;83.17
62476;DHT22;50739;45.670;11.936;2023-05-07T02:55:31;17.47;83.43
62476;DHT22;50739;45.670;11.936;2023-05-07T03:00:33;17.35;83.37
62476;DHT22;50739;45.670;11.936;2023-05-07T03:05:35;17.42;82.95
62476;DHT22;50739;45.670;11.936;2023-05-07T03:10:38;17.46;82.90
62476;DHT22;50739;45.670;11.936;2023-05-07T03:15:40;17.35;83.52
62476;DHT22;50739;45.670;11.936;2023-05-07T03:20:42;17.39;83.43
62476;DHT22;50739;45.670;11.936;2023-05-07T03:25:45;17.45;83.11
62476;DHT22;50739;45.670;11.936;2023-05-07T03:30:47;17.31;83.26
62476;DHT22;50739;45.670;11.936;2023-05-07T03:35:49;17.26;84.19
62476;DHT22;50739;45.670;11.936;2023-05-07T03:40:52;17.26;83.90
62476;DHT22;50739;45.670;11.936;2023-05-07T03:45:54;17.18;84.25
62476;DHT22;50739;45.670;11.936;2023-05-07T03:50:56;17.32;83.44
62476;DHT22;50739;45.670;11.936;2023-05-07T03:56:00;17.31;83.71
62476;DHT22;50739;45.670;11.936;2023-05-07T04:01:02;17.18;84.16
62476;DHT22;50739;45.670;11.936;2023-05-07T04:06:04;17.10;84.49
62476;DHT22;50739;45.670;11.936;2023-05-07T04:11:07;17.18;83.29
62476;DHT22;50739;45.670;11.936;2023-05-07T04:16:09;17.18;83.84
62476;DHT22;50739;45.670;11.936;2023-05-07T04:21:14;17.18;83.41
62476;DHT22;50739;45.670;11.936;2023-05-07T04:26:17;17.17;83.51
62476;DHT22;50739;45.670;11.936;2023-05-07T04:31:19;17.25;82.84
62476;DHT22;50739;45.670;11.936;2023-05-07T04:36:21;17.25;83.72
62476;DHT22;50739;45.670;11.936;2023-05-07T04:41:24;17.31;83.10
62476;DHT22;50739;45.670;11.936;2023-05-07T04:46:26;17.34;82.92
62476;DHT22;50739;45.670;11.936;2023-05-07T04:51:28;17.42;83.02
62476;DHT22;50739;45.670;11.936;2023-05-07T04:56:34;17.55;83.15
62476;DHT22;50739;45.670;11.936;2023-05-07T05:01:36;17.66;82.79
62476;DHT22;50739;45.670;11.936;2023-05-07T05:06:37;17.74;83.06
62476;DHT22;50739;45.670;11.936;2023-05-07T05:11:41;17.73;83.54
62476;DHT22;50739;45.670;11.936;2023-05-07T05:16:43;17.69;83.98
62476;DHT22;50739;45.670;11.936;2023-05-07T05:21:45;17.74;83.98
62476;DHT22;50739;45.670;11.936;2023-05-07T05:26:48;17.76;84.17
62476;DHT22;50739;45.670;11.936;2023-05-07T05:31:50;17.76;84.04
62476;DHT22;50739;45.670;11.936;2023-05-07T05:36:51;17.79;83.44
62476;DHT22;50739;45.670;11.936;2023-05-07T05:41:55;17.84;82.14
62476;DHT22;50739;45.670;11.936;2023-05-07T05:46:56;17.91;82.13
62476;DHT22;50739;45.670;11.936;2023-05-07T05:51:59;17.94;81.88
62476;DHT22;50739;45.670;11.936;2023-05-07T05:57:02;18.05;82.35
62476;DHT22;50739;45.670;11.936;2023-05-07T06:02:06;18.15;82.31
62476;DHT22;50739;45.670;11.936;2023-05-07T06:07:08;18.15;81.82
62476;DHT22;50739;45.670;11.936;2023-05-07T06:12:11;18.20;81.70
62476;DHT22;50739;45.670;11.936;2023-05-07T06:17:13;18.29;81.47
62476;DHT22;50739;45.670;11.936;2023-05-07T06:22:14;18.31;81.26
62476;DHT22;50739;45.670;11.936;2023-05-07T06:27:18;18.56;81.16
62476;DHT22;50739;45.670;11.936;2023-05-07T06:32:19;18.65;81.63
62476;DHT22;50739;45.670;11.936;2023-05-07T06:37:21;18.76;80.80
62476;DHT22;50739;45.670;11.936;2023-05-07T06:42:24;18.87;80.28
62476;DHT22;50739;45.670;11.936;2023-05-07T06:47:26;18.99;80.72
62476;DHT22;50739;45.670;11.936;2023-05-07T06:52:28;19.04;80.36
62476;DHT22;50739;45.670;11.936;2023-05-07T06:57:32;19.15;79.97
62476;DHT22;50739;45.670;11.936;2023-05-07T07:02:33;19.42;79.69
62476;DHT22;50739;45.670;11.936;2023-05-07T07:07:35;19.65;78.25
62476;DHT22;50739;45.670;11.936;2023-05-07T07:12:38;19.79;77.81
62476;DHT22;50739;45.670;11.936;2023-05-07T07:17:41;19.86;77.11
62476;DHT22;50739;45.670;11.936;2023-05-07T07:22:42;19.97;77.03
62476;DHT22;50739;45.670;11.936;2023-05-07T07:27:46;20.21;76.46
62476;DHT22;50739;45.670;11.936;2023-05-07T07:32:47;20.45;73.61
62476;DHT22;50739;45.670;11.936;2023-05-07T07:37:49;20.54;73.93
62476;DHT22;50739;45.670;11.936;2023-05-07T07:42:53;20.67;74.29
62476;DHT22;50739;45.670;11.936;2023-05-07T07:47:55;20.82;73.99
62476;DHT22;50739;45.670;11.936;2023-05-07T07:52:56;20.95;72.48
62476;DHT22;50739;45.670;11.936;2023-05-07T07:58:00;21.03;72.57
62476;DHT22;50739;45.670;11.936;2023-05-07T08:03:01;21.26;71.77
62476;DHT22;50739;45.670;11.936;2023-05-07T08:08:04;21.22;70.23
62476;DHT22;50739;45.670;11.936;2023-05-07T08:13:07;21.40;67.54
62476;DHT22;50739;45.670;11.936;2023-05-07T08:18:09;21.43;66.37
62476;DHT22;50739;45.670;11.936;2023-05-07T08:23:11;21.59;68.04
62476;DHT22;50739;45.670;11.936;2023-05-07T08:28:14;21.59;67.99
62476;DHT22;50739;45.670;11.936;2023-05-07T08:33:16;21.72;67.80
62476;DHT22;50739;45.670;11.936;2023-05-07T08:38:18;21.85;68.12
62476;DHT22;50739;45.670;11.936;2023-05-07T08:43:21;21.85;68.07
62476;DHT22;50739;45.670;11.936;2023-05-07T08:48:25;21.85;68.36
62476;DHT22;50739;45.670;11.936;2023-05-07T08:53:27;21.92;67.82
62476;DHT22;50739;45.670;11.936;2023-05-07T08:58:30;21.98;67.53
62476;DHT22;50739;45.670;11.936;2023-05-07T09:03:32;22.03;67.07
62476;DHT22;50739;45.670;11.936;2023-05-07T09:08:34;22.09;66.45
62476;DHT22;50739;45.670;11.936;2023-05-07T09:13:37;22.05;66.35
62476;DHT22;50739;45.670;11.936;2023-05-07T09:18:43;22.13;66.42
62476;DHT22;50739;45.670;11.936;2023-05-07T09:23:45;22.27;66.66
62476;DHT22;50739;45.670;11.936;2023-05-07T09:28:48;22.39;66.25
62476;DHT22;50739;45.670;11.936;2023-05-07T09:33:52;22.48;65.40
62476;DHT22;50739;45.670;11.936;2023-05-07T09:38:59;22.65;64.78
62476;DHT22;50739;45.670;11.936;2023-05-07T09:44:02;22.56;64.52
62476;DHT22;50739;45.670;11.936;2023-05-07T09:49:06;22.63;65.64
62476;DHT22;50739;45.670;11.936;2023-05-07T09:54:10;22.75;64.07
62476;DHT22;50739;45.670;11.936;2023-05-07T09:59:15;22.90;64.19
62476;DHT22;50739;45.670;11.936;2023-05-07T10:04:18;22.88;63.96
62476;DHT22;50739;45.670;11.936;2023-05-07T10:09:21;22.88;64.23
62476;DHT22;50739;45.670;11.936;2023-05-07T10:14:28;22.78;62.95
62476;DHT22;50739;45.670;11.936;2023-05-07T10:19:30;22.96;63.05
62476;DHT22;50739;45.670;11.936;2023-05-07T10:24:35;23.11;61.67
62476;DHT22;50739;45.670;11.936;2023-05-07T10:29:53;23.16;60.51
62476;DHT22;50739;45.670;11.936;2023-05-07T10:35:02;23.24;61.79
62476;DHT22;50739;45.670;11.936;2023-05-07T10:40:05;23.46;61.99
62476;DHT22;50739;45.670;11.936;2023-05-07T10:45:13;23.54;60.89
62476;DHT22;50739;45.670;11.936;2023-05-07T10:50:20;23.73;61.08
62476;DHT22;50739;45.670;11.936;2023-05-07T10:55:23;23.81;58.63
62476;DHT22;50739;45.670;11.936;2023-05-07T11:00:56;23.87;60.56
62476;DHT22;50739;45.670;11.936;2023-05-07T11:06:12;23.97;59.39
62476;DHT22;50739;45.670;11.936;2023-05-07T11:11:14;24.08;59.91
62476;DHT22;50739;45.670;11.936;2023-05-07T11:16:20;24.18;59.39
62476;DHT22;50739;45.670;11.936;2023-05-07T11:21:32;24.25;60.53
62476;DHT22;50739;45.670;11.936;2023-05-07T11:26:47;24.36;58.85
62476;DHT22;50739;45.670;11.936;2023-05-07T11:31:52;24.22;58.89
62476;DHT22;50739;45.670;11.936;2023-05-07T11:36:55;24.32;58.44
62476;DHT22;50739;45.670;11.936;2023-05-07T11:41:58;24.23;58.28
62476;DHT22;50739;45.670;11.936;2023-05-07T11:47:01;24.37;60.33
62476;DHT22;50739;45.670;11.936;2023-05-07T11:52:03;24.49;60.02
62476;DHT22;50739;45.670;11.936;2023-05-07T11:57:05;24.69;60.46
62476;DHT22;50739;45.670;11.936;2023-05-07T12:02:09;24.77;60.13
62476;DHT22;50739;45.670;11.936;2023-05-07T12:07:11;24.84;60.14
62476;DHT22;50739;45.670;11.936;2023-05-07T12:12:14;24.92;60.26
62476;DHT22;50739;45.670;11.936;2023-05-07T12:17:19;24.77;58.45
62476;DHT22;50739;45.670;11.936;2023-05-07T12:22:21;24.77;60.07
62476;DHT22;50739;45.670;11.936;2023-05-07T12:27:23;24.97;59.46
62476;DHT22;50739;45.670;11.936;2023-05-07T12:32:26;25.07;59.31
62476;DHT22;50739;45.670;11.936;2023-05-07T12:37:28;25.07;59.62
62476;DHT22;50739;45.670;11.936;2023-05-07T12:42:32;25.15;57.14
62476;DHT22;50739;45.670;11.936;2023-05-07T12:47:36;25.32;57.46
62476;DHT22;50739;45.670;11.936;2023-05-07T12:52:38;25.49;58.40
62476;DHT22;50739;45.670;11.936;2023-05-07T12:57:42;25.65;57.25
62476;DHT22;50739;45.670;11.936;2023-05-07T13:02:45;26.14;57.54
62476;DHT22;50739;45.670;11.936;2023-05-07T13:07:52;26.22;56.59
62476;DHT22;50739;45.670;11.936;2023-05-07T13:12:55;26.55;55.67
62476;DHT22;50739;45.670;11.936;2023-05-07T13:17:58;26.55;54.66
62476;DHT22;50739;45.670;11.936;2023-05-07T13:23:00;26.65;55.94
62476;DHT22;50739;45.670;11.936;2023-05-07T13:28:04;26.69;54.22
62476;DHT22;50739;45.670;11.936;2023-05-07T13:33:07;26.66;54.07
62476;DHT22;50739;45.670;11.936;2023-05-07T13:38:09;27.00;54.62
62476;DHT22;50739;45.670;11.936;2023-05-07T13:43:11;26.90;54.05
62476;DHT22;50739;45.670;11.936;2023-05-07T13:48:15;27.10;54.03
62476;DHT22;50739;45.670;11.936;2023-05-07T13:53:17;27.27;54.11
62476;DHT22;50739;45.670;11.936;2023-05-07T13:58:19;27.41;53.51
62476;DHT22;50739;45.670;11.936;2023-05-07T14:03:30;27.55;53.86
62476;DHT22;50739;45.670;11.936;2023-05-07T14:08:34;27.34;54.46
62476;DHT22;50739;45.670;11.936;2023-05-07T14:13:35;27.38;54.14
62476;DHT22;50739;45.670;11.936;2023-05-07T14:18:39;27.72;53.47
62476;DHT22;50739;45.670;11.936;2023-05-07T14:23:40;27.99;53.36
62476;DHT22;50739;45.670;11.936;2023-05-07T14:28:42;28.27;53.44
62476;DHT22;50739;45.670;11.936;2023-05-07T14:33:47;28.72;51.23
62476;DHT22;50739;45.670;11.936;2023-05-07T14:38:50;28.83;51.37
62476;DHT22;50739;45.670;11.936;2023-05-07T14:43:51;28.17;51.79
62476;DHT22;50739;45.670;11.936;2023-05-07T14:48:56;28.71;52.08
62476;DHT22;50739;45.670;11.936;2023-05-07T14:53:58;28.55;50.05
62476;DHT22;50739;45.670;11.936;2023-05-07T14:59:00;29.12;51.47
62476;DHT22;50739;45.670;11.936;2023-05-07T15:04:05;29.24;49.81
62476;DHT22;50739;45.670;11.936;2023-05-07T15:09:06;29.26;50.15
62476;DHT22;50739;45.670;11.936;2023-05-07T15:14:09;29.70;49.33
62476;DHT22;50739;45.670;11.936;2023-05-07T15:19:17;29.70;48.76
62476;DHT22;50739;45.670;11.936;2023-05-07T15:24:19;29.33;48.99
62476;DHT22;50739;45.670;11.936;2023-05-07T15:29:21;29.77;48.35
62476;DHT22;50739;45.670;11.936;2023-05-07T15:34:24;29.29;49.77
62476;DHT22;50739;45.670;11.936;2023-05-07T15:39:26;28.91;49.63
62476;DHT22;50739;45.670;11.936;2023-05-07T15:44:28;29.07;49.34
62476;DHT22;50739;45.670;11.936;2023-05-07T15:49:33;28.39;50.13
62476;DHT22;50739;45.670;11.936;2023-05-07T15:54:35;27.59;50.53
62476;DHT22;50739;45.670;11.936;2023-05-07T15:59:37;27.48;50.77
62476;DHT22;50739;45.670;11.936;2023-05-07T16:04:41;27.14;51.88
62476;DHT22;50739;45.670;11.936;2023-05-07T16:09:43;26.87;51.60
62476;DHT22;50739;45.670;11.936;2023-05-07T16:14:45;26.52;52.44
62476;DHT22;50739;45.670;11.936;2023-05-07T16:19:49;26.32;52.95
62476;DHT22;50739;45.670;11.936;2023-05-07T16:24:54;26.13;52.55
62476;DHT22;50739;45.670;11.936;2023-05-07T16:29:55;26.05;53.08
62476;DHT22;50739;45.670;11.936;2023-05-07T16:34:59;25.91;53.30
62476;DHT22;50739;45.670;11.936;2023-05-07T16:40:01;25.72;53.76
62476;DHT22;50739;45.670;11.936;2023-05-07T16:45:07;25.53;54.46
62476;DHT22;50739;45.670;11.936;2023-05-07T16:50:13;25.42;54.48
62476;DHT22;50739;45.670;11.936;2023-05-07T18:05:03;24.23;56.53
62476;DHT22;50739;45.670;11.936;2023-05-07T18:10:06;24.14;56.68
62476;DHT22;50739;45.670;11.936;2023-05-07T18:15:08;23.98;57.41
62476;DHT22;50739;45.670;11.936;2023-05-07T18:20:12;23.91;57.47
62476;DHT22;50739;45.670;11.936;2023-05-07T18:25:14;23.77;56.88
62476;DHT22;50739;45.670;11.936;2023-05-07T18:30:17;23.70;57.20
62476;DHT22;50739;45.670;11.936;2023-05-07T18:35:21;23.61;57.02
62476;DHT22;50739;45.670;11.936;2023-05-07T18:40:23;23.57;56.82
62476;DHT22;50739;45.670;11.936;2023-05-07T18:45:25;23.39;57.58
62476;DHT22;50739;45.670;11.936;2023-05-07T18:50:29;23.27;58.41
62476;DHT22;50739;45.670;11.936;2023-05-07T18:55:32;23.06;59.49
62476;DHT22;50739;45.670;11.936;2023-05-07T19:00:34;23.01;58.01
62476;DHT22;50739;45.670;11.936;2023-05-07T19:05:37;22.87;59.05
62476;DHT22;50739;45.670;11.936;2023-05-07T19:10:40;22.81;59.55
62476;DHT22;50739;45.670;11.936;2023-05-07T19:15:42;22.83;59.71
62476;DHT22;50739;45.670;11.936;2023-05-07T19:20:47;22.81;59.46
62476;DHT22;50739;45.670;11.936;2023-05-07T19:25:49;22.75;60.13
62476;DHT22;50739;45.670;11.936;2023-05-07T19:30:52;22.78;59.60
62476;DHT22;50739;45.670;11.936;2023-05-07T19:35:56;22.64;58.64
62476;DHT22;50739;45.670;11.936;2023-05-07T19:40:59;22.71;56.28
62476;DHT22;50739;45.670;11.936;2023-05-07T19:46:02;22.81;55.64
62476;DHT22;50739;45.670;11.936;2023-05-07T19:51:06;22.78;56.04
62476;DHT22;50739;45.670;11.936;2023-05-07T19:56:09;22.63;55.90
62476;DHT22;50739;45.670;11.936;2023-05-07T20:01:12;22.60;56.60
62476;DHT22;50739;45.670;11.936;2023-05-07T20:06:15;22.48;57.40
62476;DHT22;50739;45.670;11.936;2023-05-07T20:11:18;22.29;58.45
62476;DHT22;50739;45.670;11.936;2023-05-07T20:16:21;22.20;59.10
62476;DHT22;50739;45.670;11.936;2023-05-07T20:21:25;22.08;59.78
62476;DHT22;50739;45.670;11.936;2023-05-07T20:26:27;22.00;59.23
62476;DHT22;50739;45.670;11.936;2023-05-07T20:31:29;22.14;59.66
62476;DHT22;50739;45.670;11.936;2023-05-07T20:36:36;22.13;59.20
62476;DHT22;50739;45.670;11.936;2023-05-07T20:41:38;22.12;59.59
62476;DHT22;50739;45.670;11.936;2023-05-07T20:46:41;22.08;59.67
62476;DHT22;50739;45.670;11.936;2023-05-07T20:51:45;22.06;59.88
62476;DHT22;50739;45.670;11.936;2023-05-07T20:56:48;22.02;60.43
62476;DHT22;50739;45.670;11.936;2023-05-07T21:01:50;21.96;62.87
62476;DHT22;50739;45.670;11.936;2023-05-07T21:06:54;21.93;64.88
62476;DHT22;50739;45.670;11.936;2023-05-07T21:11:56;21.78;68.67
62476;DHT22;50739;45.670;11.936;2023-05-07T21:16:59;21.71;70.21
62476;DHT22;50739;45.670;11.936;2023-05-07T21:22:02;21.62;71.13
62476;DHT22;50739;45.670;11.936;2023-05-07T21:27:05;21.58;72.18
62476;DHT22;50739;45.670;11.936;2023-05-07T21:32:07;21.37;73.13
62476;DHT22;50739;45.670;11.936;2023-05-07T21:37:11;21.27;73.07
62476;DHT22;50739;45.670;11.936;2023-05-07T21:42:15;21.30;72.78
62476;DHT22;50739;45.670;11.936;2023-05-07T21:47:20;21.33;71.97
62476;DHT22;50739;45.670;11.936;2023-05-07T21:52:24;21.23;72.46
62476;DHT22;50739;45.670;11.936;2023-05-07T21:57:27;21.14;72.91
62476;DHT22;50739;45.670;11.936;2023-05-07T22:02:29;21.27;72.68
62476;DHT22;50739;45.670;11.936;2023-05-07T22:07:33;21.13;73.07
62476;DHT22;50739;45.670;11.936;2023-05-07T22:12:35;21.03;73.34
62476;DHT22;50739;45.670;11.936;2023-05-07T22:17:37;21.09;73.35
62476;DHT22;50739;45.670;11.936;2023-05-07T22:22:47;21.23;73.63
62476;DHT22;50739;45.670;11.936;2023-05-07T22:27:51;21.24;73.62
62476;DHT22;50739;45.670;11.936;2023-05-07T22:32:53;21.22;73.84
62476;DHT22;50739;45.670;11.936;2023-05-07T22:37:57;21.13;74.40
62476;DHT22;50739;45.670;11.936;2023-05-07T22:42:59;21.06;74.41
62476;DHT22;50739;45.670;11.936;2023-05-07T22:48:01;20.90;75.33
62476;DHT22;50739;45.670;11.936;2023-05-07T22:53:05;20.85;75.27
62476;DHT22;50739;45.670;11.936;2023-05-07T22:58:08;20.92;74.56
62476;DHT22;50739;45.670;11.936;2023-05-07T23:03:10;20.83;74.12
62476;DHT22;50739;45.670;11.936;2023-05-07T23:08:14;20.89;72.83
62476;DHT22;50739;45.670;11.936;2023-05-07T23:13:16;20.82;73.33
62476;DHT22;50739;45.670;11.936;2023-05-07T23:18:18;20.73;73.16
62476;DHT22;50739;45.670;11.936;2023-05-07T23:23:22;20.79;73.49
62476;DHT22;50739;45.670;11.936;2023-05-07T23:28:24;20.67;74.20
62476;DHT22;50739;45.670;11.936;2023-05-07T23:33:41;20.64;73.55
62476;DHT22;50739;45.670;11.936;2023-05-07T23:38:44;20.79;72.91
62476;DHT22;50739;45.670;11.936;2023-05-07T23:43:47;20.69;73.13
62476;DHT22;50739;45.670;11.936;2023-05-07T23:48:50;20.64;72.97
62476;DHT22;50739;45.670;11.936;2023-05-07T23:53:53;20.56;72.00
62476;DHT22;50739;45.670;11.936;2023-05-07T23:58:56;20.61;71.97
